sensor_id;sensor_type;location;lat;lon;timestamp;pressure;altitude;pressure_sealevel;temperature;humidity
58467;BME280;44255;49.244;7.726;2022-12-10T04:32:10;97271.38;;;3.03;73.31
58467;BME280;44255;49.244;7.726;2022-12-10T04:34:35;97268.00;;;2.97;73.48
58467;BME280;44255;49.244;7.726;2022-12-10T04:37:02;97259.06;;;3.05;73.48
58467;BME280;44255;49.244;7.726;2022-12-10T04:39:28;97263.56;;;3.01;73.67
58467;BME280;44255;49.244;7.726;2022-12-10T04:41:53;97266.94;;;3.05;74.05
58467;BME280;44255;49.244;7.726;2022-12-10T04:44:19;97276.72;;;2.99;73.57
58467;BME280;44255;49.244;7.726;2022-12-10T04:46:45;97273.16;;;3.02;73.23
58467;BME280;44255;49.244;7.726;2022-12-10T04:49:11;97271.50;;;2.98;74.20
58467;BME280;44255;49.244;7.726;2022-12-10T04:51:36;97267.97;;;2.99;74.30
58467;BME280;44255;49.244;7.726;2022-12-10T04:54:02;97267.81;;;3.05;74.06
58467;BME280;44255;49.244;7.726;2022-12-10T04:56:28;97262.50;;;3.08;73.68
58467;BME280;44255;49.244;7.726;2022-12-10T04:58:55;97266.03;;;3.07;73.76
58467;BME280;44255;49.244;7.726;2022-12-10T05:01:21;97263.28;;;3.12;73.19
58467;BME280;44255;49.244;7.726;2022-12-10T05:03:46;97260.66;;;3.12;73.54
58467;BME280;44255;49.244;7.726;2022-12-10T05:06:13;97263.47;;;3.04;73.63
58467;BME280;44255;49.244;7.726;2022-12-10T05:08:40;97266.94;;;3.06;73.86
58467;BME280;44255;49.244;7.726;2022-12-10T05:11:16;97269.84;;;2.94;73.00
58467;BME280;44255;49.244;7.726;2022-12-10T05:13:43;97273.91;;;3.07;73.14
58467;BME280;44255;49.244;7.726;2022-12-10T05:16:10;97272.09;;;3.09;73.05
58467;BME280;44255;49.244;7.726;2022-12-10T05:18:36;97276.56;;;3.06;72.39
58467;BME280;44255;49.244;7.726;2022-12-10T05:21:04;97279.06;;;3.12;72.32
58467;BME280;44255;49.244;7.726;2022-12-10T05:23:29;97275.41;;;3.18;72.38
58467;BME280;44255;49.244;7.726;2022-12-10T05:26:12;97284.41;;;3.09;72.75
58467;BME280;44255;49.244;7.726;2022-12-10T05:28:44;97286.16;;;3.07;72.71
58467;BME280;44255;49.244;7.726;2022-12-10T05:31:15;97290.47;;;3.11;72.60
58467;BME280;44255;49.244;7.726;2022-12-10T05:33:41;97283.31;;;3.18;72.41
58467;BME280;44255;49.244;7.726;2022-12-10T05:36:07;97277.09;;;3.20;72.22
58467;BME280;44255;49.244;7.726;2022-12-10T05:38:33;97285.09;;;3.16;71.72
58467;BME280;44255;49.244;7.726;2022-12-10T05:41:08;97282.50;;;3.14;72.60
58467;BME280;44255;49.244;7.726;2022-12-10T05:43:33;97295.59;;;3.16;72.42
58467;BME280;44255;49.244;7.726;2022-12-10T05:46:06;97292.16;;;3.13;72.70
58467;BME280;44255;49.244;7.726;2022-12-10T05:48:33;97301.66;;;3.19;72.32
58467;BME280;44255;49.244;7.726;2022-12-10T05:51:03;97299.09;;;3.16;72.26
58467;BME280;44255;49.244;7.726;2022-12-10T05:53:28;97306.06;;;3.19;71.82
58467;BME280;44255;49.244;7.726;2022-12-10T05:56:06;97296.66;;;3.08;71.59
58467;BME280;44255;49.244;7.726;2022-12-10T05:58:32;97292.03;;;3.18;71.50
58467;BME280;44255;49.244;7.726;2022-12-10T06:00:57;97300.09;;;3.12;71.37
58467;BME280;44255;49.244;7.726;2022-12-10T06:03:23;97305.47;;;3.06;71.44
58467;BME280;44255;49.244;7.726;2022-12-10T06:05:49;97307.28;;;3.04;71.57
58467;BME280;44255;49.244;7.726;2022-12-10T06:08:14;97307.25;;;3.05;71.58
58467;BME280;44255;49.244;7.726;2022-12-10T06:10:40;97317.75;;;3.05;71.55
58467;BME280;44255;49.244;7.726;2022-12-10T06:13:05;97317.88;;;2.99;71.49
58467;BME280;44255;49.244;7.726;2022-12-10T06:15:30;97322.22;;;3.02;71.85
58467;BME280;44255;49.244;7.726;2022-12-10T06:17:56;97320.31;;;3.08;71.33
58467;BME280;44255;49.244;7.726;2022-12-10T06:20:22;97324.69;;;3.08;71.06
58467;BME280;44255;49.244;7.726;2022-12-10T06:22:48;97327.28;;;3.09;71.08
58467;BME280;44255;49.244;7.726;2022-12-10T06:25:13;97330.53;;;3.21;71.05
58467;BME280;44255;49.244;7.726;2022-12-10T06:27:38;97335.06;;;3.14;70.77
58467;BME280;44255;49.244;7.726;2022-12-10T06:30:08;97332.63;;;3.06;71.03
58467;BME280;44255;49.244;7.726;2022-12-10T06:32:33;97336.06;;;3.10;70.55
58467;BME280;44255;49.244;7.726;2022-12-10T06:34:58;97334.44;;;3.03;71.53
58467;BME280;44255;49.244;7.726;2022-12-10T06:37:24;97332.91;;;2.94;71.70
58467;BME280;44255;49.244;7.726;2022-12-10T06:39:52;97330.97;;;3.02;71.63
58467;BME280;44255;49.244;7.726;2022-12-10T06:42:19;97337.09;;;3.03;71.42
58467;BME280;44255;49.244;7.726;2022-12-10T06:44:45;97355.28;;;3.12;71.06
58467;BME280;44255;49.244;7.726;2022-12-10T06:47:10;97347.66;;;2.99;71.36
58467;BME280;44255;49.244;7.726;2022-12-10T06:49:36;97354.66;;;3.01;70.98
58467;BME280;44255;49.244;7.726;2022-12-10T06:52:02;97355.28;;;3.12;70.68
58467;BME280;44255;49.244;7.726;2022-12-10T06:54:28;97361.44;;;3.11;70.72
58467;BME280;44255;49.244;7.726;2022-12-10T06:56:54;97360.38;;;3.18;70.68
58467;BME280;44255;49.244;7.726;2022-12-10T06:59:19;97356.22;;;3.08;71.26
58467;BME280;44255;49.244;7.726;2022-12-10T07:01:46;97371.47;;;2.93;71.68
58467;BME280;44255;49.244;7.726;2022-12-10T07:04:12;97368.88;;;2.92;72.01
58467;BME280;44255;49.244;7.726;2022-12-10T07:06:38;97369.75;;;2.92;71.72
58467;BME280;44255;49.244;7.726;2022-12-10T07:09:03;97373.03;;;3.01;71.81
58467;BME280;44255;49.244;7.726;2022-12-10T07:11:28;97372.22;;;2.98;71.91
58467;BME280;44255;49.244;7.726;2022-12-10T07:13:56;97382.88;;;2.92;71.26
58467;BME280;44255;49.244;7.726;2022-12-10T07:16:25;97378.31;;;2.99;71.25
58467;BME280;44255;49.244;7.726;2022-12-10T07:18:51;97382.72;;;2.98;71.34
58467;BME280;44255;49.244;7.726;2022-12-10T07:21:22;97387.00;;;3.03;71.40
58467;BME280;44255;49.244;7.726;2022-12-10T07:23:50;97391.59;;;2.94;71.25
58467;BME280;44255;49.244;7.726;2022-12-10T07:26:15;97385.34;;;3.00;71.05
58467;BME280;44255;49.244;7.726;2022-12-10T07:28:41;97388.84;;;2.99;71.57
58467;BME280;44255;49.244;7.726;2022-12-10T07:31:08;97394.91;;;3.03;72.01
58467;BME280;44255;49.244;7.726;2022-12-10T07:33:34;97396.69;;;3.02;71.29
58467;BME280;44255;49.244;7.726;2022-12-10T07:36:06;97397.69;;;2.95;71.51
58467;BME280;44255;49.244;7.726;2022-12-10T07:38:32;97399.47;;;2.94;71.59
58467;BME280;44255;49.244;7.726;2022-12-10T07:40:57;97393.44;;;2.89;71.56
58467;BME280;44255;49.244;7.726;2022-12-10T07:43:25;97407.53;;;2.85;71.45
58467;BME280;44255;49.244;7.726;2022-12-10T07:45:51;97406.63;;;2.86;71.54
58467;BME280;44255;49.244;7.726;2022-12-10T07:48:16;97405.47;;;2.99;70.59
58467;BME280;44255;49.244;7.726;2022-12-10T07:50:41;97410.66;;;3.04;70.58
58467;BME280;44255;49.244;7.726;2022-12-10T07:53:06;97404.72;;;2.94;70.81
58467;BME280;44255;49.244;7.726;2022-12-10T07:55:32;97404.56;;;3.02;70.40
58467;BME280;44255;49.244;7.726;2022-12-10T07:57:57;97410.88;;;2.93;70.72
58467;BME280;44255;49.244;7.726;2022-12-10T08:00:22;97412.31;;;3.08;70.58
58467;BME280;44255;49.244;7.726;2022-12-10T08:02:47;97416.63;;;3.11;70.52
58467;BME280;44255;49.244;7.726;2022-12-10T08:05:13;97425.59;;;3.02;70.64
58467;BME280;44255;49.244;7.726;2022-12-10T08:07:38;97427.53;;;2.92;70.19
58467;BME280;44255;49.244;7.726;2022-12-10T08:10:04;97422.00;;;3.05;70.18
58467;BME280;44255;49.244;7.726;2022-12-10T08:12:29;97422.78;;;3.10;70.05
58467;BME280;44255;49.244;7.726;2022-12-10T08:14:54;97421.91;;;3.09;69.38
58467;BME280;44255;49.244;7.726;2022-12-10T08:17:20;97432.13;;;3.23;69.37
58467;BME280;44255;49.244;7.726;2022-12-10T08:19:45;97425.75;;;3.34;69.19
58467;BME280;44255;49.244;7.726;2022-12-10T08:22:11;97426.28;;;3.10;69.76
58467;BME280;44255;49.244;7.726;2022-12-10T08:24:36;97434.88;;;3.19;69.64
58467;BME280;44255;49.244;7.726;2022-12-10T08:27:01;97439.97;;;3.25;68.87
58467;BME280;44255;49.244;7.726;2022-12-10T08:29:26;97435.41;;;3.33;68.80
58467;BME280;44255;49.244;7.726;2022-12-10T08:31:52;97434.00;;;3.18;69.28
58467;BME280;44255;49.244;7.726;2022-12-10T08:34:18;97434.75;;;3.23;68.32
58467;BME280;44255;49.244;7.726;2022-12-10T08:36:44;97448.53;;;3.35;68.08
58467;BME280;44255;49.244;7.726;2022-12-10T08:39:10;97448.84;;;3.19;68.19
58467;BME280;44255;49.244;7.726;2022-12-10T08:41:40;97459.78;;;3.01;68.24
58467;BME280;44255;49.244;7.726;2022-12-10T08:44:05;97451.88;;;3.02;68.44
58467;BME280;44255;49.244;7.726;2022-12-10T08:46:31;97461.09;;;3.20;68.18
58467;BME280;44255;49.244;7.726;2022-12-10T08:48:56;97461.47;;;3.03;68.67
58467;BME280;44255;49.244;7.726;2022-12-10T08:51:21;97453.59;;;3.03;68.34
58467;BME280;44255;49.244;7.726;2022-12-10T08:53:47;97453.38;;;3.12;68.51
58467;BME280;44255;49.244;7.726;2022-12-10T08:56:12;97461.03;;;3.23;68.32
58467;BME280;44255;49.244;7.726;2022-12-10T08:58:39;97453.44;;;3.09;68.64
58467;BME280;44255;49.244;7.726;2022-12-10T09:01:12;97462.31;;;3.04;68.87
58467;BME280;44255;49.244;7.726;2022-12-10T09:03:38;97460.41;;;3.12;68.46
58467;BME280;44255;49.244;7.726;2022-12-10T09:06:05;97463.53;;;3.30;68.24
58467;BME280;44255;49.244;7.726;2022-12-10T09:08:31;97457.78;;;3.12;68.55
58467;BME280;44255;49.244;7.726;2022-12-10T09:10:57;97462.81;;;3.23;68.05
58467;BME280;44255;49.244;7.726;2022-12-10T09:13:22;97470.84;;;3.15;68.72
58467;BME280;44255;49.244;7.726;2022-12-10T09:15:52;97472.88;;;3.02;69.32
58467;BME280;44255;49.244;7.726;2022-12-10T09:18:18;97471.66;;;3.19;68.40
58467;BME280;44255;49.244;7.726;2022-12-10T09:20:43;97477.09;;;3.11;68.87
58467;BME280;44255;49.244;7.726;2022-12-10T09:23:08;97470.09;;;3.10;68.87
58467;BME280;44255;49.244;7.726;2022-12-10T09:25:34;97475.06;;;3.24;68.35
58467;BME280;44255;49.244;7.726;2022-12-10T09:27:59;97476.28;;;3.07;68.95
58467;BME280;44255;49.244;7.726;2022-12-10T09:30:24;97480.41;;;3.19;68.42
58467;BME280;44255;49.244;7.726;2022-12-10T09:32:49;97485.66;;;3.19;68.84
58467;BME280;44255;49.244;7.726;2022-12-10T09:35:15;97485.81;;;3.13;68.70
58467;BME280;44255;49.244;7.726;2022-12-10T09:37:40;97480.84;;;3.40;67.87
58467;BME280;44255;49.244;7.726;2022-12-10T09:40:06;97491.59;;;3.29;68.38
58467;BME280;44255;49.244;7.726;2022-12-10T09:42:46;97487.81;;;3.41;67.64
58467;BME280;44255;49.244;7.726;2022-12-10T09:45:22;97489.09;;;3.62;66.89
58467;BME280;44255;49.244;7.726;2022-12-10T09:51:06;97503.91;;;3.27;68.27
58467;BME280;44255;49.244;7.726;2022-12-10T09:53:36;97501.03;;;3.38;67.42
58467;BME280;44255;49.244;7.726;2022-12-10T09:56:03;97503.56;;;3.44;68.34
58467;BME280;44255;49.244;7.726;2022-12-10T09:58:29;97502.25;;;3.23;67.42
58467;BME280;44255;49.244;7.726;2022-12-10T10:01:01;97497.59;;;3.36;67.44
58467;BME280;44255;49.244;7.726;2022-12-10T10:03:28;97500.78;;;3.50;67.11
58467;BME280;44255;49.244;7.726;2022-12-10T10:05:56;97503.50;;;3.46;66.93
58467;BME280;44255;49.244;7.726;2022-12-10T10:10:53;97503.44;;;3.49;67.17
58467;BME280;44255;49.244;7.726;2022-12-10T10:13:34;97510.50;;;3.47;67.84
58467;BME280;44255;49.244;7.726;2022-12-10T10:16:23;97503.47;;;3.47;66.67
58467;BME280;44255;49.244;7.726;2022-12-10T10:18:56;97511.09;;;3.60;66.56
58467;BME280;44255;49.244;7.726;2022-12-10T10:21:26;97500.59;;;3.60;66.32
58467;BME280;44255;49.244;7.726;2022-12-10T10:23:54;97500.84;;;3.47;66.58
58467;BME280;44255;49.244;7.726;2022-12-10T10:26:20;97503.31;;;3.55;66.87
58467;BME280;44255;49.244;7.726;2022-12-10T10:28:45;97497.06;;;3.61;66.43
58467;BME280;44255;49.244;7.726;2022-12-10T10:31:18;97496.91;;;3.65;66.22
58467;BME280;44255;49.244;7.726;2022-12-10T10:33:51;97504.69;;;3.72;66.13
58467;BME280;44255;49.244;7.726;2022-12-10T10:36:22;97497.25;;;3.89;65.52
58467;BME280;44255;49.244;7.726;2022-12-10T10:38:48;97492.31;;;3.75;65.80
58467;BME280;44255;49.244;7.726;2022-12-10T10:41:13;97493.16;;;3.77;65.93
58467;BME280;44255;49.244;7.726;2022-12-10T10:43:39;97494.47;;;3.58;66.71
58467;BME280;44255;49.244;7.726;2022-12-10T10:48:33;97507.91;;;3.84;65.64
58467;BME280;44255;49.244;7.726;2022-12-10T10:51:15;97498.91;;;3.93;65.70
58467;BME280;44255;49.244;7.726;2022-12-10T10:53:47;97488.22;;;3.99;65.10
58467;BME280;44255;49.244;7.726;2022-12-10T10:56:18;97491.66;;;4.03;65.34
58467;BME280;44255;49.244;7.726;2022-12-10T10:58:55;97490.84;;;4.01;64.77
58467;BME280;44255;49.244;7.726;2022-12-10T11:01:22;97498.19;;;3.87;65.21
58467;BME280;44255;49.244;7.726;2022-12-10T11:03:58;97491.38;;;3.78;65.93
58467;BME280;44255;49.244;7.726;2022-12-10T11:06:24;97497.66;;;3.72;66.12
58467;BME280;44255;49.244;7.726;2022-12-10T11:08:49;97506.88;;;3.52;66.25
58467;BME280;44255;49.244;7.726;2022-12-10T11:13:45;97499.00;;;3.90;65.46
58467;BME280;44255;49.244;7.726;2022-12-10T11:16:12;97500.75;;;3.90;64.99
58467;BME280;44255;49.244;7.726;2022-12-10T11:18:41;97497.72;;;4.07;65.65
58467;BME280;44255;49.244;7.726;2022-12-10T11:23:39;97490.69;;;4.07;64.05
58467;BME280;44255;49.244;7.726;2022-12-10T11:26:09;97489.75;;;4.10;64.63
58467;BME280;44255;49.244;7.726;2022-12-10T11:31:22;97500.75;;;4.26;63.66
58467;BME280;44255;49.244;7.726;2022-12-10T11:33:57;97500.75;;;4.26;63.73
58467;BME280;44255;49.244;7.726;2022-12-10T11:36:31;97491.72;;;4.36;63.88
58467;BME280;44255;49.244;7.726;2022-12-10T11:41:49;97490.06;;;4.32;63.09
58467;BME280;44255;49.244;7.726;2022-12-10T11:44:24;97480.09;;;4.44;63.23
58467;BME280;44255;49.244;7.726;2022-12-10T11:46:56;97482.75;;;4.44;62.98
58467;BME280;44255;49.244;7.726;2022-12-10T11:57:43;97494.75;;;4.19;62.45
58467;BME280;44255;49.244;7.726;2022-12-10T12:00:21;97491.00;;;4.64;61.86
58467;BME280;44255;49.244;7.726;2022-12-10T12:03:06;97494.34;;;4.71;62.32
58467;BME280;44255;49.244;7.726;2022-12-10T12:08:09;97499.38;;;5.10;61.59
58467;BME280;44255;49.244;7.726;2022-12-10T12:10:44;97512.00;;;4.99;60.42
58467;BME280;44255;49.244;7.726;2022-12-10T12:13:18;97511.66;;;5.11;60.20
58467;BME280;44255;49.244;7.726;2022-12-10T12:15:53;97507.25;;;5.12;59.76
58467;BME280;44255;49.244;7.726;2022-12-10T12:20:54;97523.84;;;4.84;61.14
58467;BME280;44255;49.244;7.726;2022-12-10T12:25:53;97531.56;;;4.57;61.66
58467;BME280;44255;49.244;7.726;2022-12-10T12:28:28;97530.31;;;4.37;61.82
58467;BME280;44255;49.244;7.726;2022-12-10T12:31:09;97539.38;;;4.62;61.07
58467;BME280;44255;49.244;7.726;2022-12-10T12:33:54;97536.28;;;4.44;60.89
58467;BME280;44255;49.244;7.726;2022-12-10T12:36:30;97535.84;;;4.28;60.62
58467;BME280;44255;49.244;7.726;2022-12-10T12:39:00;97539.47;;;4.57;60.44
58467;BME280;44255;49.244;7.726;2022-12-10T12:41:41;97541.81;;;4.68;60.33
58467;BME280;44255;49.244;7.726;2022-12-10T12:46:44;97540.59;;;4.81;60.28
58467;BME280;44255;49.244;7.726;2022-12-10T12:49:16;97542.59;;;5.05;59.22
58467;BME280;44255;49.244;7.726;2022-12-10T12:51:49;97534.19;;;5.23;58.63
58467;BME280;44255;49.244;7.726;2022-12-10T12:54:16;97534.06;;;5.28;57.47
58467;BME280;44255;49.244;7.726;2022-12-10T12:59:32;97554.13;;;5.34;57.72
58467;BME280;44255;49.244;7.726;2022-12-10T13:04:30;97553.94;;;5.40;56.51
58467;BME280;44255;49.244;7.726;2022-12-10T13:09:46;97555.16;;;5.28;57.52
58467;BME280;44255;49.244;7.726;2022-12-10T13:17:25;97560.34;;;5.31;58.68
58467;BME280;44255;49.244;7.726;2022-12-10T13:19:52;97565.66;;;5.30;57.35
58467;BME280;44255;49.244;7.726;2022-12-10T13:25:05;97560.53;;;5.55;56.91
58467;BME280;44255;49.244;7.726;2022-12-10T13:27:32;97567.25;;;5.95;56.56
58467;BME280;44255;49.244;7.726;2022-12-10T13:30:44;97565.31;;;6.01;55.78
58467;BME280;44255;49.244;7.726;2022-12-10T13:32:45;97565.44;;;6.26;55.95
58467;BME280;44255;49.244;7.726;2022-12-10T13:46:20;97579.22;;;6.36;54.97
58467;BME280;44255;49.244;7.726;2022-12-10T13:48:46;97589.53;;;6.17;54.16
58467;BME280;44255;49.244;7.726;2022-12-10T13:51:12;97584.66;;;6.03;54.48
58467;BME280;44255;49.244;7.726;2022-12-10T13:58:42;97601.28;;;5.45;55.94
58467;BME280;44255;49.244;7.726;2022-12-10T14:06:32;97603.81;;;4.83;56.86
58467;BME280;44255;49.244;7.726;2022-12-10T14:09:05;97615.75;;;4.63;57.70
58467;BME280;44255;49.244;7.726;2022-12-10T14:11:31;97621.69;;;4.35;57.96
58467;BME280;44255;49.244;7.726;2022-12-10T14:13:58;97614.69;;;4.69;57.45
58467;BME280;44255;49.244;7.726;2022-12-10T14:16:26;97614.31;;;5.51;56.15
58467;BME280;44255;49.244;7.726;2022-12-10T14:18:59;97619.81;;;5.10;56.11
58467;BME280;44255;49.244;7.726;2022-12-10T14:21:25;97619.91;;;5.38;55.55
58467;BME280;44255;49.244;7.726;2022-12-10T14:23:51;97621.00;;;5.93;54.35
58467;BME280;44255;49.244;7.726;2022-12-10T14:26:21;97619.72;;;7.66;49.36
58467;BME280;44255;49.244;7.726;2022-12-10T14:28:48;97617.66;;;6.73;50.63
58467;BME280;44255;49.244;7.726;2022-12-10T14:31:15;97630.00;;;5.55;53.31
58467;BME280;44255;49.244;7.726;2022-12-10T14:33:41;97634.78;;;4.75;56.06
58467;BME280;44255;49.244;7.726;2022-12-10T14:36:13;97637.03;;;4.16;58.03
58467;BME280;44255;49.244;7.726;2022-12-10T14:38:39;97649.69;;;3.98;58.77
58467;BME280;44255;49.244;7.726;2022-12-10T14:41:04;97643.91;;;3.82;58.81
58467;BME280;44255;49.244;7.726;2022-12-10T14:43:38;97643.81;;;3.87;59.59
58467;BME280;44255;49.244;7.726;2022-12-10T14:46:04;97640.53;;;3.77;59.79
58467;BME280;44255;49.244;7.726;2022-12-10T14:48:30;97639.50;;;3.40;60.93
58467;BME280;44255;49.244;7.726;2022-12-10T14:50:56;97646.56;;;3.37;61.69
58467;BME280;44255;49.244;7.726;2022-12-10T14:53:27;97645.50;;;3.47;61.79
58467;BME280;44255;49.244;7.726;2022-12-10T14:55:53;97642.28;;;3.31;62.30
58467;BME280;44255;49.244;7.726;2022-12-10T14:58:24;97645.06;;;3.23;62.21
58467;BME280;44255;49.244;7.726;2022-12-10T15:00:51;97648.69;;;3.18;62.04
58467;BME280;44255;49.244;7.726;2022-12-10T15:03:25;97660.31;;;3.04;62.71
58467;BME280;44255;49.244;7.726;2022-12-10T15:05:55;97659.56;;;2.97;63.48
58467;BME280;44255;49.244;7.726;2022-12-10T15:08:21;97657.06;;;2.91;63.90
58467;BME280;44255;49.244;7.726;2022-12-10T15:10:49;97664.31;;;2.74;64.78
58467;BME280;44255;49.244;7.726;2022-12-10T15:15:43;97668.06;;;2.60;65.36
58467;BME280;44255;49.244;7.726;2022-12-10T15:18:16;97668.31;;;2.43;65.87
58467;BME280;44255;49.244;7.726;2022-12-10T15:20:50;97666.34;;;2.56;65.77
58467;BME280;44255;49.244;7.726;2022-12-10T15:28:32;97671.31;;;2.17;68.10
58467;BME280;44255;49.244;7.726;2022-12-10T15:31:08;97677.53;;;2.11;68.40
58467;BME280;44255;49.244;7.726;2022-12-10T15:33:36;97680.25;;;2.03;68.25
58467;BME280;44255;49.244;7.726;2022-12-10T15:36:02;97680.59;;;1.78;68.67
58467;BME280;44255;49.244;7.726;2022-12-10T15:38:28;97680.75;;;1.63;69.95
58467;BME280;44255;49.244;7.726;2022-12-10T15:40:57;97686.00;;;1.61;69.57
58467;BME280;44255;49.244;7.726;2022-12-10T15:43:27;97684.22;;;1.65;69.81
58467;BME280;44255;49.244;7.726;2022-12-10T15:45:54;97684.38;;;1.52;69.95
58467;BME280;44255;49.244;7.726;2022-12-10T15:48:19;97685.97;;;1.66;70.14
58467;BME280;44255;49.244;7.726;2022-12-10T15:50:45;97681.91;;;2.10;68.62
58467;BME280;44255;49.244;7.726;2022-12-10T15:53:12;97687.00;;;2.21;68.28
58467;BME280;44255;49.244;7.726;2022-12-10T15:55:37;97687.00;;;2.21;68.16
58467;BME280;44255;49.244;7.726;2022-12-10T15:58:04;97685.34;;;2.16;68.31
58467;BME280;44255;49.244;7.726;2022-12-10T16:00:29;97695.97;;;2.06;68.86
58467;BME280;44255;49.244;7.726;2022-12-10T16:02:58;97690.72;;;2.06;68.35
58467;BME280;44255;49.244;7.726;2022-12-10T16:05:28;97698.31;;;1.58;70.05
58467;BME280;44255;49.244;7.726;2022-12-10T16:07:54;97708.78;;;1.59;71.06
58467;BME280;44255;49.244;7.726;2022-12-10T16:10:20;97705.69;;;1.98;69.62
58467;BME280;44255;49.244;7.726;2022-12-10T16:12:47;97704.00;;;1.92;69.62
58467;BME280;44255;49.244;7.726;2022-12-10T16:15:17;97710.22;;;1.85;69.74
58467;BME280;44255;49.244;7.726;2022-12-10T16:17:43;97709.53;;;1.69;70.22
58467;BME280;44255;49.244;7.726;2022-12-10T16:22:39;97715.63;;;1.71;70.18
58467;BME280;44255;49.244;7.726;2022-12-10T16:25:05;97711.22;;;1.75;70.50
58467;BME280;44255;49.244;7.726;2022-12-10T16:27:30;97717.47;;;1.63;71.14
58467;BME280;44255;49.244;7.726;2022-12-10T16:29:57;97718.09;;;1.85;70.23
58467;BME280;44255;49.244;7.726;2022-12-10T16:32:23;97717.41;;;1.69;70.29
58467;BME280;44255;49.244;7.726;2022-12-10T16:34:48;97724.47;;;1.65;69.68
58467;BME280;44255;49.244;7.726;2022-12-10T16:37:13;97727.16;;;1.58;69.75
58467;BME280;44255;49.244;7.726;2022-12-10T16:39:38;97733.63;;;1.21;70.18
58467;BME280;44255;49.244;7.726;2022-12-10T16:42:05;97729.28;;;1.20;70.92
58467;BME280;44255;49.244;7.726;2022-12-10T16:44:30;97744.34;;;0.94;72.17
58467;BME280;44255;49.244;7.726;2022-12-10T16:46:56;97740.91;;;0.88;71.78
58467;BME280;44255;49.244;7.726;2022-12-10T16:49:22;97734.91;;;0.73;73.43
58467;BME280;44255;49.244;7.726;2022-12-10T16:51:47;97736.63;;;0.76;73.91
58467;BME280;44255;49.244;7.726;2022-12-10T16:54:12;97739.94;;;0.99;73.25
58467;BME280;44255;49.244;7.726;2022-12-10T16:56:38;97739.78;;;1.17;71.80
58467;BME280;44255;49.244;7.726;2022-12-10T16:59:04;97740.53;;;1.30;72.34
58467;BME280;44255;49.244;7.726;2022-12-10T17:01:29;97744.13;;;1.19;72.23
58467;BME280;44255;49.244;7.726;2022-12-10T17:03:56;97753.84;;;1.08;71.95
58467;BME280;44255;49.244;7.726;2022-12-10T17:06:21;97747.00;;;0.90;71.85
58467;BME280;44255;49.244;7.726;2022-12-10T17:08:47;97746.22;;;0.78;71.97
58467;BME280;44255;49.244;7.726;2022-12-10T17:14:02;97755.97;;;0.61;72.73
58467;BME280;44255;49.244;7.726;2022-12-10T17:16:28;97753.31;;;0.64;73.93
58467;BME280;44255;49.244;7.726;2022-12-10T17:18:53;97759.44;;;0.61;74.05
58467;BME280;44255;49.244;7.726;2022-12-10T17:21:19;97761.13;;;0.67;73.41
58467;BME280;44255;49.244;7.726;2022-12-10T17:23:44;97767.31;;;0.55;72.86
58467;BME280;44255;49.244;7.726;2022-12-10T17:26:20;97767.31;;;0.55;73.33
58467;BME280;44255;49.244;7.726;2022-12-10T17:28:46;97767.34;;;0.52;74.14
58467;BME280;44255;49.244;7.726;2022-12-10T17:31:12;97763.88;;;0.47;74.24
58467;BME280;44255;49.244;7.726;2022-12-10T17:33:37;97762.22;;;0.36;74.29
58467;BME280;44255;49.244;7.726;2022-12-10T17:36:02;97762.19;;;0.39;74.30
58467;BME280;44255;49.244;7.726;2022-12-10T17:38:30;97766.50;;;0.42;74.39
58467;BME280;44255;49.244;7.726;2022-12-10T17:40:55;97766.63;;;0.25;74.46
58467;BME280;44255;49.244;7.726;2022-12-10T17:43:20;97760.59;;;0.06;74.66
58467;BME280;44255;49.244;7.726;2022-12-10T17:45:46;97763.22;;;0.03;74.77
58467;BME280;44255;49.244;7.726;2022-12-10T17:48:12;97771.06;;;0.03;75.28
58467;BME280;44255;49.244;7.726;2022-12-10T17:50:37;97764.00;;;0.23;74.14
58467;BME280;44255;49.244;7.726;2022-12-10T17:53:05;97770.09;;;0.25;74.22
58467;BME280;44255;49.244;7.726;2022-12-10T17:55:34;97776.25;;;0.18;74.10
58467;BME280;44255;49.244;7.726;2022-12-10T17:58:00;97781.53;;;-0.02;75.44
58467;BME280;44255;49.244;7.726;2022-12-10T18:00:26;97774.59;;;-0.09;75.15
58467;BME280;44255;49.244;7.726;2022-12-10T18:02:52;97783.31;;;-0.07;75.48
58467;BME280;44255;49.244;7.726;2022-12-10T18:05:18;97782.44;;;-0.05;75.50
58467;BME280;44255;49.244;7.726;2022-12-10T18:07:44;97778.97;;;-0.07;75.00
58467;BME280;44255;49.244;7.726;2022-12-10T18:10:18;97785.13;;;-0.23;76.06
58467;BME280;44255;49.244;7.726;2022-12-10T18:12:44;97775.56;;;-0.29;75.36
58467;BME280;44255;49.244;7.726;2022-12-10T18:15:13;97782.53;;;-0.37;76.21
58467;BME280;44255;49.244;7.726;2022-12-10T18:17:38;97793.88;;;-0.32;75.55
58467;BME280;44255;49.244;7.726;2022-12-10T18:20:04;97786.84;;;-0.24;75.09
58467;BME280;44255;49.244;7.726;2022-12-10T18:22:29;97785.06;;;-0.14;75.37
58467;BME280;44255;49.244;7.726;2022-12-10T18:24:54;97790.31;;;-0.19;75.08
58467;BME280;44255;49.244;7.726;2022-12-10T18:27:20;97797.31;;;-0.22;74.90
58467;BME280;44255;49.244;7.726;2022-12-10T18:29:45;97802.56;;;-0.36;75.29
58467;BME280;44255;49.244;7.726;2022-12-10T18:32:11;97800.88;;;-0.50;74.91
58467;BME280;44255;49.244;7.726;2022-12-10T18:34:36;97804.34;;;-0.63;75.02
58467;BME280;44255;49.244;7.726;2022-12-10T18:37:01;97803.50;;;-0.68;75.15
58467;BME280;44255;49.244;7.726;2022-12-10T18:39:27;97805.22;;;-0.58;75.06
58467;BME280;44255;49.244;7.726;2022-12-10T18:41:56;97806.97;;;-0.52;75.35
58467;BME280;44255;49.244;7.726;2022-12-10T18:44:22;97811.31;;;-0.42;75.21
58467;BME280;44255;49.244;7.726;2022-12-10T18:46:49;97799.97;;;-0.46;74.94
58467;BME280;44255;49.244;7.726;2022-12-10T18:49:15;97800.88;;;-0.59;75.25
58467;BME280;44255;49.244;7.726;2022-12-10T18:51:40;97807.84;;;-0.78;73.96
58467;BME280;44255;49.244;7.726;2022-12-10T18:54:05;97809.59;;;-0.90;74.67
58467;BME280;44255;49.244;7.726;2022-12-10T18:56:31;97811.34;;;-0.99;75.83
58467;BME280;44255;49.244;7.726;2022-12-10T18:58:57;97813.06;;;-1.03;76.48
58467;BME280;44255;49.244;7.726;2022-12-10T19:01:22;97811.31;;;-1.04;75.83
58467;BME280;44255;49.244;7.726;2022-12-10T19:03:48;97804.38;;;-0.97;76.49
58467;BME280;44255;49.244;7.726;2022-12-10T19:06:17;97804.34;;;-0.88;76.65
58467;BME280;44255;49.244;7.726;2022-12-10T19:08:43;97809.59;;;-0.76;75.21
58467;BME280;44255;49.244;7.726;2022-12-10T19:11:08;97817.44;;;-0.66;75.47